Alice_oldendorff — CQLK — position and weather

sailwx.info

Track history (hours):
 
Tides and Currents Weather Stations Pressure Air Temp Water Temp Dewpoint Dewpoint Depression Visibility Wind Speed Wind Dir Waves Ship Positions

Alice_oldendorff

Last reported at 2017-Nov-17 04:38 UTC. Time now 2017-Nov-18 21:57 UTC.
Position N 40°25' W 073°30'.

Length 190 m; draft 8.3 m.

Type: Cargo ship. MMSI: 255804980.

Date/timePositionNaut miles runAvg speedWind from/ knotsBaromVisibWave heightAir tempDewpointWater temp
2017-Nov-17 04:38N 40°25' W 073°30'210.8
2017-Nov-17 04:27N 40°25' W 073°33'5 9.6
2017-Nov-17 03:56N 40°25' W 073°39'4 9.7
2017-Nov-17 03:30N 40°26' W 073°45'5 9.5
2017-Nov-17 03:00N 40°27' W 073°51'5 9.7
2017-Nov-17 02:30N 40°30' W 073°56'713.1
2017-Nov-17 02:00N 40°34' W 074°02'611.8
2017-Nov-17 01:31N 40°40' W 074°03'4 7.5
2017-Nov-17 01:01N 40°43' W 073°59'0 0.2
2017-Nov-17 00:27N 40°42' W 073°58'0 0.0
2017-Nov-17 00:00N 40°42' W 073°58'0 0.0
2017-Nov-16 23:30N 40°42' W 073°58'0 0.0
2017-Nov-16 23:00N 40°42' W 073°58'0 0.0
2017-Nov-16 22:30N 40°42' W 073°58'0 0.0
2017-Nov-16 22:00N 40°42' W 073°58'0 0.0
2017-Nov-16 21:30N 40°42' W 073°58'0 0.0
2017-Nov-16 21:00N 40°42' W 073°58'0 0.0
2017-Nov-16 20:30N 40°42' W 073°58'0 0.0
2017-Nov-16 20:00N 40°42' W 073°58'0 0.0
2017-Nov-16 19:30N 40°42' W 073°58'0 0.0
2017-Nov-16 19:00N 40°42' W 073°58'0 0.0
2017-Nov-16 18:30N 40°42' W 073°58'0 0.0
2017-Nov-16 18:00N 40°42' W 073°58'0 0.0
2017-Nov-16 17:30N 40°42' W 073°58'0 0.0
2017-Nov-16 17:00N 40°42' W 073°58'0 0.0
2017-Nov-16 16:30N 40°42' W 073°58'0 0.0
2017-Nov-16 16:00N 40°42' W 073°58'0 0.0
2017-Nov-16 15:30N 40°42' W 073°58'0 0.0
2017-Nov-16 15:00N 40°42' W 073°58'0 0.0
2017-Nov-16 14:30N 40°42' W 073°58'0 0.0
2017-Nov-16 14:00N 40°42' W 073°58'0 0.0
2017-Nov-16 13:30N 40°42' W 073°58'0 0.0
2017-Nov-16 13:00N 40°42' W 073°58'0 0.0
2017-Nov-16 12:30N 40°42' W 073°58'0 0.0
2017-Nov-16 12:00N 40°42' W 073°58'0 0.0
2017-Nov-16 11:30N 40°42' W 073°58'0 0.0
2017-Nov-16 11:00N 40°42' W 073°58'0 0.0
2017-Nov-16 10:30N 40°42' W 073°58'0 0.0
2017-Nov-16 10:00N 40°42' W 073°58'0 0.0
2017-Nov-16 09:30N 40°42' W 073°58'0 0.0
2017-Nov-16 09:00N 40°42' W 073°58'0 0.0
2017-Nov-16 08:30N 40°42' W 073°58'0 0.0
2017-Nov-16 07:59N 40°42' W 073°58'0 0.0
2017-Nov-16 07:29N 40°42' W 073°58'0 0.0
2017-Nov-16 06:59N 40°42' W 073°58'0 0.0
2017-Nov-16 06:29N 40°42' W 073°58'0 0.0
2017-Nov-16 05:59N 40°42' W 073°58'0 0.0
2017-Nov-16 05:29N 40°42' W 073°58'0 0.0
2017-Nov-16 04:59N 40°42' W 073°58'0 0.0
2017-Nov-16 04:29N 40°42' W 073°58'0 0.0
2017-Nov-16 03:59N 40°42' W 073°58'0 0.0
2017-Nov-16 03:29N 40°42' W 073°58'0 0.0
2017-Nov-16 02:59N 40°42' W 073°58'0 0.0
2017-Nov-16 02:29N 40°42' W 073°58'0 0.0
2017-Nov-16 01:59N 40°42' W 073°58'0 0.0
2017-Nov-16 01:29N 40°42' W 073°58'0 0.1
2017-Nov-16 00:59N 40°42' W 073°59'0 0.3
2017-Nov-16 00:29N 40°42' W 073°58'0 0.0
2017-Nov-15 23:56N 40°42' W 073°58'0 0.0
2017-Nov-15 23:29N 40°42' W 073°58'0 0.0
2017-Nov-15 22:59N 40°42' W 073°58'0 0.0
2017-Nov-15 22:29N 40°42' W 073°58'0 0.0
2017-Nov-15 21:59N 40°42' W 073°58'0 0.0
2017-Nov-15 21:29N 40°42' W 073°58'0 0.0
2017-Nov-15 20:59N 40°42' W 073°58'0 0.0
2017-Nov-15 20:29N 40°42' W 073°58'0 0.0
2017-Nov-15 19:59N 40°42' W 073°58'0 0.0
2017-Nov-15 19:29N 40°42' W 073°58'0 0.0
2017-Nov-15 18:59N 40°42' W 073°58'0 0.0
2017-Nov-15 18:29N 40°42' W 073°58'0 0.0
2017-Nov-15 17:59N 40°42' W 073°58'0 0.0
2017-Nov-15 17:29N 40°42' W 073°58'0 0.0
2017-Nov-15 16:59N 40°42' W 073°58'0 0.0
2017-Nov-15 16:29N 40°42' W 073°58'0 0.0
2017-Nov-15 15:59N 40°42' W 073°58'0 0.0
2017-Nov-15 15:29N 40°42' W 073°58'0 0.0
2017-Nov-15 14:59N 40°42' W 073°58'0 0.0
2017-Nov-15 14:29N 40°42' W 073°58'0 0.0
2017-Nov-15 13:59N 40°42' W 073°58'0 0.0
2017-Nov-15 13:29N 40°42' W 073°58'0 0.0
2017-Nov-15 12:59N 40°42' W 073°58'0 0.0
2017-Nov-15 12:29N 40°42' W 073°58'0 0.0
2017-Nov-15 11:59N 40°42' W 073°58'0 0.0
2017-Nov-15 11:29N 40°42' W 073°58'0 0.0
2017-Nov-15 10:59N 40°42' W 073°58'0 0.0
2017-Nov-15 10:29N 40°42' W 073°58'0 0.0
2017-Nov-15 09:59N 40°42' W 073°58'0 0.0
2017-Nov-15 09:29N 40°42' W 073°58'0 0.0
2017-Nov-15 08:59N 40°42' W 073°58'0 0.0
2017-Nov-15 08:29N 40°42' W 073°58'0 0.0
2017-Nov-15 07:59N 40°42' W 073°58'0 0.0
2017-Nov-15 07:29N 40°42' W 073°58'0 0.0
2017-Nov-15 06:59N 40°42' W 073°58'0 0.0
2017-Nov-15 06:29N 40°42' W 073°58'0 0.0
2017-Nov-15 05:59N 40°42' W 073°58'0 0.0
2017-Nov-15 05:29N 40°42' W 073°58'0 0.0
2017-Nov-15 04:59N 40°42' W 073°58'0 0.0
2017-Nov-15 04:29N 40°42' W 073°58'0 0.0
2017-Nov-15 03:59N 40°42' W 073°58'0 0.0
2017-Nov-15 03:29N 40°42' W 073°58'0 0.0
2017-Nov-15 02:59N 40°42' W 073°58'0 0.0
2017-Nov-15 02:29N 40°42' W 073°58'0 0.0
2017-Nov-15 01:59N 40°42' W 073°58'0 0.0
2017-Nov-15 01:29N 40°42' W 073°58'0 0.0
2017-Nov-15 00:59N 40°42' W 073°58'0 0.0
2017-Nov-15 00:29N 40°42' W 073°58'0 0.0
2017-Nov-14 23:59N 40°42' W 073°58'0 0.0
2017-Nov-14 23:29N 40°42' W 073°58'0 0.0
2017-Nov-14 22:59N 40°42' W 073°58'0 0.0
2017-Nov-14 22:29N 40°42' W 073°58'0 0.0
2017-Nov-14 21:59N 40°42' W 073°58'0 0.0
2017-Nov-14 21:29N 40°42' W 073°58'0 0.0
2017-Nov-14 20:59N 40°42' W 073°58'0 0.0
2017-Nov-14 20:29N 40°42' W 073°58'0 0.0
2017-Nov-14 19:56N 40°42' W 073°58'0 0.0
2017-Nov-14 19:29N 40°42' W 073°58'0 0.0
2017-Nov-14 18:59N 40°42' W 073°58'0 0.0
2017-Nov-14 18:29N 40°42' W 073°58'0 0.0
2017-Nov-14 17:59N 40°42' W 073°58'0 0.0
2017-Nov-14 17:29N 40°42' W 073°58'0 0.0
2017-Nov-14 16:59N 40°42' W 073°58'0 0.0
2017-Nov-14 16:28N 40°42' W 073°58'0 0.0
2017-Nov-14 15:58N 40°42' W 073°58'0 0.0
2017-Nov-14 15:28N 40°42' W 073°58'0 0.0
2017-Nov-14 14:58N 40°42' W 073°58'0 0.0
2017-Nov-14 14:28N 40°42' W 073°58'0 0.0
2017-Nov-14 13:58N 40°42' W 073°58'0 0.0
2017-Nov-14 13:28N 40°42' W 073°58'0 0.0
2017-Nov-14 12:58N 40°42' W 073°58'0 0.0
2017-Nov-14 12:28N 40°42' W 073°58'0 0.0
2017-Nov-14 11:58N 40°42' W 073°58'0 0.5
2017-Nov-14 11:30N 40°42' W 073°59'2 4.7
2017-Nov-14 11:00N 40°42' W 074°02'4 7.2
2017-Nov-14 10:30N 40°38' W 074°03'5 9.6
2017-Nov-14 10:00N 40°34' W 074°02'5 9.7
2017-Nov-14 09:30N 40°30' W 073°57'510.1
2017-Nov-14 09:00N 40°28' W 073°51'4 7.8
2017-Nov-14 08:29N 40°27' W 073°46'4 6.9
2017-Nov-14 07:57N 40°27' W 073°41'4 8.1
2017-Nov-14 07:27N 40°28' W 073°36'4 8.1
2017-Nov-14 06:59N 40°28' W 073°31'14 9.7
2017-Nov-14 05:32N 40°30' W 073°12'  
Track history (hours):
 
Tides and Currents Weather Stations Pressure Air Temp Water Temp Dewpoint Dewpoint Depression Visibility Wind Speed Wind Dir Waves Ship Positions

Alice_oldendorff

Last reported at 2017-Nov-17 04:38 UTC. Time now 2017-Nov-18 21:57 UTC.
Position N 40°25' W 073°30'.

Length 190 m; draft 8.3 m.

Type: Cargo ship. MMSI: 255804980.

Date/timePositionNaut miles runAvg speedWind from/ knotsBaromVisibWave heightAir tempDewpointWater temp
2017-Nov-17 04:38N 40°25' W 073°30'210.8
2017-Nov-17 04:27N 40°25' W 073°33'5 9.6
2017-Nov-17 03:56N 40°25' W 073°39'4 9.7
2017-Nov-17 03:30N 40°26' W 073°45'5 9.5
2017-Nov-17 03:00N 40°27' W 073°51'5 9.7
2017-Nov-17 02:30N 40°30' W 073°56'713.1
2017-Nov-17 02:00N 40°34' W 074°02'611.8
2017-Nov-17 01:31N 40°40' W 074°03'4 7.5
2017-Nov-17 01:01N 40°43' W 073°59'0 0.2
2017-Nov-17 00:27N 40°42' W 073°58'0 0.0
2017-Nov-17 00:00N 40°42' W 073°58'0 0.0
2017-Nov-16 23:30N 40°42' W 073°58'0 0.0
2017-Nov-16 23:00N 40°42' W 073°58'0 0.0
2017-Nov-16 22:30N 40°42' W 073°58'0 0.0
2017-Nov-16 22:00N 40°42' W 073°58'0 0.0
2017-Nov-16 21:30N 40°42' W 073°58'0 0.0
2017-Nov-16 21:00N 40°42' W 073°58'0 0.0
2017-Nov-16 20:30N 40°42' W 073°58'0 0.0
2017-Nov-16 20:00N 40°42' W 073°58'0 0.0
2017-Nov-16 19:30N 40°42' W 073°58'0 0.0
2017-Nov-16 19:00N 40°42' W 073°58'0 0.0
2017-Nov-16 18:30N 40°42' W 073°58'0 0.0
2017-Nov-16 18:00N 40°42' W 073°58'0 0.0
2017-Nov-16 17:30N 40°42' W 073°58'0 0.0
2017-Nov-16 17:00N 40°42' W 073°58'0 0.0
2017-Nov-16 16:30N 40°42' W 073°58'0 0.0
2017-Nov-16 16:00N 40°42' W 073°58'0 0.0
2017-Nov-16 15:30N 40°42' W 073°58'0 0.0
2017-Nov-16 15:00N 40°42' W 073°58'0 0.0
2017-Nov-16 14:30N 40°42' W 073°58'0 0.0
2017-Nov-16 14:00N 40°42' W 073°58'0 0.0
2017-Nov-16 13:30N 40°42' W 073°58'0 0.0
2017-Nov-16 13:00N 40°42' W 073°58'0 0.0
2017-Nov-16 12:30N 40°42' W 073°58'0 0.0
2017-Nov-16 12:00N 40°42' W 073°58'0 0.0
2017-Nov-16 11:30N 40°42' W 073°58'0 0.0
2017-Nov-16 11:00N 40°42' W 073°58'0 0.0
2017-Nov-16 10:30N 40°42' W 073°58'0 0.0
2017-Nov-16 10:00N 40°42' W 073°58'0 0.0
2017-Nov-16 09:30N 40°42' W 073°58'0 0.0
2017-Nov-16 09:00N 40°42' W 073°58'0 0.0
2017-Nov-16 08:30N 40°42' W 073°58'0 0.0
2017-Nov-16 07:59N 40°42' W 073°58'0 0.0
2017-Nov-16 07:29N 40°42' W 073°58'0 0.0
2017-Nov-16 06:59N 40°42' W 073°58'0 0.0
2017-Nov-16 06:29N 40°42' W 073°58'0 0.0
2017-Nov-16 05:59N 40°42' W 073°58'0 0.0
2017-Nov-16 05:29N 40°42' W 073°58'0 0.0
2017-Nov-16 04:59N 40°42' W 073°58'0 0.0
2017-Nov-16 04:29N 40°42' W 073°58'0 0.0
2017-Nov-16 03:59N 40°42' W 073°58'0 0.0
2017-Nov-16 03:29N 40°42' W 073°58'0 0.0
2017-Nov-16 02:59N 40°42' W 073°58'0 0.0
2017-Nov-16 02:29N 40°42' W 073°58'0 0.0
2017-Nov-16 01:59N 40°42' W 073°58'0 0.0
2017-Nov-16 01:29N 40°42' W 073°58'0 0.1
2017-Nov-16 00:59N 40°42' W 073°59'0 0.3
2017-Nov-16 00:29N 40°42' W 073°58'0 0.0
2017-Nov-15 23:56N 40°42' W 073°58'0 0.0
2017-Nov-15 23:29N 40°42' W 073°58'0 0.0
2017-Nov-15 22:59N 40°42' W 073°58'0 0.0
2017-Nov-15 22:29N 40°42' W 073°58'0 0.0
2017-Nov-15 21:59N 40°42' W 073°58'0 0.0
2017-Nov-15 21:29N 40°42' W 073°58'0 0.0
2017-Nov-15 20:59N 40°42' W 073°58'0 0.0
2017-Nov-15 20:29N 40°42' W 073°58'0 0.0
2017-Nov-15 19:59N 40°42' W 073°58'0 0.0
2017-Nov-15 19:29N 40°42' W 073°58'0 0.0
2017-Nov-15 18:59N 40°42' W 073°58'0 0.0
2017-Nov-15 18:29N 40°42' W 073°58'0 0.0
2017-Nov-15 17:59N 40°42' W 073°58'0 0.0
2017-Nov-15 17:29N 40°42' W 073°58'0 0.0
2017-Nov-15 16:59N 40°42' W 073°58'0 0.0
2017-Nov-15 16:29N 40°42' W 073°58'0 0.0
2017-Nov-15 15:59N 40°42' W 073°58'0 0.0
2017-Nov-15 15:29N 40°42' W 073°58'0 0.0
2017-Nov-15 14:59N 40°42' W 073°58'0 0.0
2017-Nov-15 14:29N 40°42' W 073°58'0 0.0
2017-Nov-15 13:59N 40°42' W 073°58'0 0.0
2017-Nov-15 13:29N 40°42' W 073°58'0 0.0
2017-Nov-15 12:59N 40°42' W 073°58'0 0.0
2017-Nov-15 12:29N 40°42' W 073°58'0 0.0
2017-Nov-15 11:59N 40°42' W 073°58'0 0.0
2017-Nov-15 11:29N 40°42' W 073°58'0 0.0
2017-Nov-15 10:59N 40°42' W 073°58'0 0.0
2017-Nov-15 10:29N 40°42' W 073°58'0 0.0
2017-Nov-15 09:59N 40°42' W 073°58'0 0.0
2017-Nov-15 09:29N 40°42' W 073°58'0 0.0
2017-Nov-15 08:59N 40°42' W 073°58'0 0.0
2017-Nov-15 08:29N 40°42' W 073°58'0 0.0
2017-Nov-15 07:59N 40°42' W 073°58'0 0.0
2017-Nov-15 07:29N 40°42' W 073°58'0 0.0
2017-Nov-15 06:59N 40°42' W 073°58'0 0.0
2017-Nov-15 06:29N 40°42' W 073°58'0 0.0
2017-Nov-15 05:59N 40°42' W 073°58'0 0.0
2017-Nov-15 05:29N 40°42' W 073°58'0 0.0
2017-Nov-15 04:59N 40°42' W 073°58'0 0.0
2017-Nov-15 04:29N 40°42' W 073°58'0 0.0
2017-Nov-15 03:59N 40°42' W 073°58'0 0.0
2017-Nov-15 03:29N 40°42' W 073°58'0 0.0
2017-Nov-15 02:59N 40°42' W 073°58'0 0.0
2017-Nov-15 02:29N 40°42' W 073°58'0 0.0
2017-Nov-15 01:59N 40°42' W 073°58'0 0.0
2017-Nov-15 01:29N 40°42' W 073°58'0 0.0
2017-Nov-15 00:59N 40°42' W 073°58'0 0.0
2017-Nov-15 00:29N 40°42' W 073°58'0 0.0
2017-Nov-14 23:59N 40°42' W 073°58'0 0.0
2017-Nov-14 23:29N 40°42' W 073°58'0 0.0
2017-Nov-14 22:59N 40°42' W 073°58'0 0.0
2017-Nov-14 22:29N 40°42' W 073°58'0 0.0
2017-Nov-14 21:59N 40°42' W 073°58'0 0.0
2017-Nov-14 21:29N 40°42' W 073°58'0 0.0
2017-Nov-14 20:59N 40°42' W 073°58'0 0.0
2017-Nov-14 20:29N 40°42' W 073°58'0 0.0
2017-Nov-14 19:56N 40°42' W 073°58'0 0.0
2017-Nov-14 19:29N 40°42' W 073°58'0 0.0
2017-Nov-14 18:59N 40°42' W 073°58'0 0.0
2017-Nov-14 18:29N 40°42' W 073°58'0 0.0
2017-Nov-14 17:59N 40°42' W 073°58'0 0.0
2017-Nov-14 17:29N 40°42' W 073°58'0 0.0
2017-Nov-14 16:59N 40°42' W 073°58'0 0.0
2017-Nov-14 16:28N 40°42' W 073°58'0 0.0
2017-Nov-14 15:58N 40°42' W 073°58'0 0.0
2017-Nov-14 15:28N 40°42' W 073°58'0 0.0
2017-Nov-14 14:58N 40°42' W 073°58'0 0.0
2017-Nov-14 14:28N 40°42' W 073°58'0 0.0
2017-Nov-14 13:58N 40°42' W 073°58'0 0.0
2017-Nov-14 13:28N 40°42' W 073°58'0 0.0
2017-Nov-14 12:58N 40°42' W 073°58'0 0.0
2017-Nov-14 12:28N 40°42' W 073°58'0 0.0
2017-Nov-14 11:58N 40°42' W 073°58'0 0.5
2017-Nov-14 11:30N 40°42' W 073°59'2 4.7
2017-Nov-14 11:00N 40°42' W 074°02'4 7.2
2017-Nov-14 10:30N 40°38' W 074°03'5 9.6
2017-Nov-14 10:00N 40°34' W 074°02'5 9.7
2017-Nov-14 09:30N 40°30' W 073°57'510.1
2017-Nov-14 09:00N 40°28' W 073°51'4 7.8
2017-Nov-14 08:29N 40°27' W 073°46'4 6.9
2017-Nov-14 07:57N 40°27' W 073°41'4 8.1
2017-Nov-14 07:27N 40°28' W 073°36'4 8.1
2017-Nov-14 06:59N 40°28' W 073°31'14 9.7
2017-Nov-14 05:32N 40°30' W 073°12'  

Dump ship's entire track history